This is the latest recevied weather packets stored in our database for station/object DK9XR-14. If no packets are shown the sender has not sent any weather packets the latest 1 day(s).
| Time | Temp. | Humidity | Pressure | Rain* | Wind** | Luminosity | Snow |
|---|---|---|---|---|---|---|---|
| 1777986677 | 16.11° C | 75% | 1009.5 hPa | 0.25 mm | 1.34 m/s, 302° | - | - |
| 1777986371 | 16.11° C | 77% | 1009.5 hPa | 0.25 mm | 0.89 m/s, 309° | - | - |
| 1777986072 | 16.11° C | 78% | 1009.5 hPa | 0.25 mm | 0.89 m/s, 303° | - | - |
| 1777985767 | 16.11° C | 77% | 1009.6 hPa | 0.25 mm | 0.89 m/s, 310° | - | - |
| 1777985467 | 16.11° C | 79% | 1009.7 hPa | 0.25 mm | 0.45 m/s, 292° | - | - |
| 1777985166 | 16.11° C | 76% | 1009.6 hPa | 0.25 mm | 0.89 m/s, 290° | - | - |
| 1777984865 | 16.11° C | 74% | 1009.7 hPa | 0.25 mm | 0.89 m/s, 289° | - | - |
| 1777984565 | 16.67° C | 73% | 1009.7 hPa | 0.25 mm | 1.79 m/s, 299° | - | - |
| 1777984264 | 17.22° C | 72% | 1009.8 hPa | 0 mm | 0.89 m/s, 264° | - | - |
| 1777983963 | 17.78° C | 66% | 1009.8 hPa | 0 mm | 1.79 m/s, 307° | - | - |
| 1777983664 | 18.33° C | 60% | 1009.7 hPa | 0 mm | 1.79 m/s, 326° | - | - |
| 1777983362 | 18.33° C | 58% | 1009.7 hPa | 0 mm | 1.79 m/s, 282° | - | - |
| 1777983062 | 18.33° C | 58% | 1009.5 hPa | 0 mm | 0.89 m/s, 266° | - | - |
| 1777982762 | 18.89° C | 59% | 1009.5 hPa | 0 mm | 0.89 m/s, 261° | - | - |
| 1777982162 | 18.89° C | 57% | 1009.3 hPa | 0 mm | 1.79 m/s, 303° | - | - |
| 1777981861 | 18.33° C | 60% | 1009.4 hPa | 0 mm | 2.68 m/s, 312° | - | - |
| 1777981563 | 18.33° C | 63% | 1009.3 hPa | 0 mm | 2.24 m/s, 293° | - | - |
| 1777981261 | 18.33° C | 62% | 1009.2 hPa | 0 mm | 1.79 m/s, 292° | - | - |
| 1777980963 | 18.33° C | 64% | 1009.2 hPa | 0 mm | 1.34 m/s, 283° | - | - |
| 1777980661 | 18.33° C | 65% | 1009.3 hPa | 0 mm | 0.89 m/s, 268° | - | - |
| 1777980360 | 18.33° C | 65% | 1009.2 hPa | 0 mm | 1.79 m/s, 290° | - | - |
| 1777980061 | 18.33° C | 65% | 1009.1 hPa | 0 mm | 1.34 m/s, 275° | - | - |
| 1777979761 | 18.33° C | 67% | 1009.1 hPa | 0 mm | 0.89 m/s, 319° | - | - |
| 1777979460 | 18.33° C | 67% | 1009 hPa | 0 mm | 1.34 m/s, 302° | - | - |
| 1777979160 | 18.33° C | 66% | 1009.1 hPa | 0 mm | 1.79 m/s, 310° | - | - |
* Rain latest hour (hover to see other rain measurements)
** Current wind speed in m/s (hover to see current wind gust speed)